Laurent Verva

Laurent Verva

Statistiques 2022

  • Nb de partants : 143
  • Nb de victoires : 2
  • Nb de places : 23
  • Écart gagnant : 2
  • Réussite à la gagne : 1%
  • Réussite à la place : 16%
Musique : 4a 8a 1a Da Da 0a 4m Da 2a Da 7a 6a Da 0a Da 0a 0a 4a
ChevalDernière courseCoursesVictoiresR. à la gagnePlacésR. à la place
Get d'Eronville 27/06/22 42 1 2% 8 19%
Idole du Moncel 26/06/22 6 1 17% 2 33%
Hercule de Bea 26/06/22 34 4 12% 8 24%
Ilya de la Besvre 26/06/22 10 0 - 2 20%
Harmonie Picarde 25/06/22 18 1 6% 6 33%
Holly d'Ardennes 23/06/22 22 1 5% 5 23%
Haoussa de Vennes 19/06/22 23 1 4% 6 26%
Ivajale 19/06/22 17 0 - 2 12%
Jullian Daddy 19/06/22 0 0 - 0 -
Ijaba 19/06/22 5 0 - 3 60%
Ivonic Breiz 18/06/22 20 0 - 2 10%
Javotte d'Ardennes 18/06/22 0 0 - 0 -
Hilton du Houlet 16/06/22 27 2 7% 8 30%
Jackpot du Lot 13/06/22 2 0 - 0 -
Hysia d'huon 12/06/22 19 2 11% 6 32%
Idalia Sautreuil 12/06/22 0 0 - 0 -
Iron Sam 11/06/22 14 0 - 1 7%
Izgood du Roen 11/06/22 11 0 - 2 18%
Gitane des Marais 11/06/22 46 3 7% 11 24%
Diego du Houlet 10/06/22 76 11 14% 32 42%
Gloria Mika 09/06/22 47 3 6% 11 23%
For Ever Mencourt 09/06/22 56 3 5% 17 30%
Flashback Syga 06/06/22 53 3 6% 12 23%
Ivina 06/06/22 3 1 33% 1 33%
Jermany 05/06/22 3 0 - 0 -
Idole Star 30/05/22 10 1 10% 2 20%
Island Mencourt 29/05/22 5 0 - 1 20%
Jolie de Mai 29/05/22 0 0 - 0 -
Illico de l'Aumoy 22/05/22 6 0 - 0 -
Hammamet Danover 22/05/22 26 3 12% 8 31%
Fire Bird 28/02/22 58 4 7% 12 21%
Esther du Ganep 21/12/21 66 1 2% 11 17%
Gamin Picard 04/12/21 25 1 4% 5 20%
Gold des Pres 22/08/21 24 1 4% 2 8%
Goran de la Besvre 11/07/21 30 0 - 3 10%
Gabriela du Toulay 29/03/21 21 1 5% 5 24%
Holman Dream 26/02/21 9 3 33% 4 44%
Flamme Mencourt 13/12/20 30 1 3% 6 20%
Estime Unik 09/12/20 45 3 7% 11 24%
Guess Mencourt 07/12/20 11 0 - 3 27%
Hina Cal 01/11/20 0 0 - 0 -
Farca Sly 01/11/20 37 1 3% 4 11%
Elisee du Pont 18/10/20 41 1 2% 7 17%
Fetzo Reglisse 24/11/19 17 0 - 3 18%
Gamin de Marny 10/11/19 0 0 - 0 -
Gachette Mencourt 27/10/19 0 0 - 0 -
Filae des Salines 20/10/19 12 0 - 1 8%
Folie de Marny 20/10/19 0 0 - 0 -
Defi du Plessis 02/10/19 37 1 3% 8 22%
Au Temps Dubonheur 19/08/19 103 5 5% 27 26%